Mexico, MO

9:52 AM CST on March 01, 2015 (GMT -0600)
KMOMEXIC4 | Change Station
CLOSE
Current Station
Personal Weather Station
Location: Mexico, MO
Elevation: 778 ft
Nearby Weather Stations
Active Advisory: Winter Weather Advisory Active Notice: Local Storm Report

Elev 778 ft 39.17 °N, 91.87 °W | Updated 1 minute ago

Snow
Snow
26.6 °F
Feels Like 27 °F
N
3.0
Wind Variable Wind from WNW
Gusts 3.0 mph

Today
High -- | Low -- °F
--% Chance of Precip.
Yesterday
High -- | Low -- °F
Precip. -- in
6:40 AM 5:59 PM
Waxing Gibbous, 85% visible
Pressure 30.38 in
Visibility 1.8 miles
Clouds Mostly Cloudy 2600 ft
Overcast 3700 ft
Windchill 27 °F
Dew Point 24 °F
Humidity 89%
Rainfall 0.00 in
Snow Depth Not available.
UV 1 out of 12
Pollen .60 out of 12
Air Quality Not available.
Flu Activity Not available.
SPECI KCOU 011540Z 33005KT 1 3/4SM -SN BR BKN026 OVC037 M03/M05 A3038 RMK AO2 UPB01E16SNB16 P0001 T10331050

More Conditions Fewer Conditions

Pressure 30.38 in
Visibility 1.8 miles
Clouds Mostly Cloudy 2600 ft
Overcast 3700 ft
Windchill 27 °F
Dew Point 24 °F
Humidity 89%
Rainfall 0.00 in
Snow Depth Not available.
UV 1 out of 12
Pollen .60 out of 12
Air Quality Not available.
Flu Activity Not available.
SPECI KCOU 011540Z 33005KT 1 3/4SM -SN BR BKN026 OVC037 M03/M05 A3038 RMK AO2 UPB01E16SNB16 P0001 T10331050

More Conditions Fewer Conditions

10-Day Weather Forecast

Almanac

Astronomy

Mar. 01, 2015 Rise Set
Actual Time
Civil Twilight
Nautical Twilight
Astronomical Twilight
Moon
Length of Visible Light
Length of Day
Tomorrow will be .
, % of the Moon is Illuminated

Today's Extremes

State Highs State Lows

Community

WunderPhotos

Upload Photos

1,801,435 photos uploaded!

WunderBlogs® & News

Nearby

Air Quality

  Air Quality AQ Index Pollutant
Not available.

Snow Depth

Station Depth Elevation

Earthquake Activity

City Distance Mag. Time & Date
Minimum magnitude displayed is 2.5.

Coastal Water Temperatures

Place Temperature

Nearby Weather Stations

Winter Weather Advisory
Statement as of 4:25 AM CST on March 01, 2015

... Winter Weather Advisory remains in effect until 6 PM CST this
evening...

* timing... snow will gradually diminish today.

* Accumulations... 2 to 6 inches of snow.

* Winds... west 5 mph or less.

* Impacts... the wintry precipitation will result in hazardous
travel conditions... especially on bridges... overpasses... and
untreated roads. Parking lots and sidewalks will become
slippery as well.

Precautionary/preparedness actions...

A Winter Weather Advisory means that less than 6 inches of snow is
expected across the advisory area. Slippery roads can be
expected... so motorists should plan for a slower than normal
trip. Be especially alert when approaching bridges... overpasses... and
curves.